Terminal Aerodrome Forecast
Issued by NWS Sterling, VA

Current Version | Previous Version | Text Only | Print | Product List | Glossary Off
Versions: 1 2 3 4 5 6 7 8 9 10 11 12 13 14 15 16 17 18 19 20 21 22 23 24 25 26 27

000
FTUS41 KLWX 012106 AAA
TAFDCA
TAF AMD
KDCA 012106Z 0121/0218 18009KT 5SM -FZRA BKN008 OVC040
     FM012300 VRB04KT 5SM BR BKN005 OVC050
     FM021200 33008KT P6SM SCT003 BKN050
     FM021400 33012G25KT P6SM SCT050=

USA.gov is the U.S. government's official web portal to all federal, state and local government web resources and services.